CYWA

Details ICAO CYWA (YWA)
Name PETAWAWA
Region Canada
Timezone America/Toronto (UTC-4.0)
Plans Departing 2
Arriving 2
Stats Elevation 427 ft / 130 m (AMSL)
Location 45.951943° -77.319029°
Runways 1
Magnetic Variation 12.440° W
Sunrise 2018-05-22 09:31:19 UTC / 2018-05-22 05:31:19 Local
Sunset 2018-05-23 00:43:27 UTC / 2018-05-22 20:43:27 Local
Advertisement - Login to hide

Runways

ID Width Length Bearing (true) Bearing (mag) Surface Threshold Offset Overrun Length
17 75 ft / 23 m 3,835 ft / 1,169 m 147.78° 160.22° Grass 0 ft / 0 m 0 ft / 0 m
35 75 ft / 23 m 3,835 ft / 1,169 m 327.79° 340.23° Grass 0 ft / 0 m 0 ft / 0 m

Map

Weather


0- 5 10 15 20 25 30 35+ Temperature / ° C

Clouds and Precipitation
Forecast for 2018-05-23 06:00 UTC. Updated 25 minutes ago

Ground ~20,000 ft ~40,000 ft Winds

METAR

CYWA 230300Z AUTO 00000KT 9SM CLR 12/10 A2988 RMK SLP120

TAF

TAF CYWA 222330Z 2300/2312 13005KT P6SM FEW200 BECMG 2306/2308 30005KT RMK FCST BASED ON AUTO OBS. NXT FCST BY 230600Z

Frequencies

Tower 126.40 MHz 427 OPS
Tower 126.40 MHz RANGE CON
Tower 126.20 MHz 427 OPS
Warning: Do not use this data for real-world aviation or navigation. No guarantee of current accuracy is given.